createdAt,value
2023-05-01T00:00:10.297Z,11.35
2023-05-01T00:02:38.652Z,11.26
2023-05-01T00:05:08.690Z,11.44
2023-05-01T00:07:37.114Z,11.77
2023-05-01T00:10:05.871Z,11.49
2023-05-01T00:12:35.566Z,11.67
2023-05-01T00:15:03.891Z,11.55
2023-05-01T00:17:32.307Z,11.02
2023-05-01T00:20:00.840Z,11.17
2023-05-01T00:22:29.034Z,11.17
2023-05-01T00:24:57.239Z,11.35
2023-05-01T00:27:25.735Z,11.30
2023-05-01T00:29:55.564Z,11.87
2023-05-01T00:32:23.958Z,12.23
2023-05-01T00:34:52.369Z,12.46
2023-05-01T00:37:20.675Z,12.59
2023-05-01T00:39:48.933Z,12.64
2023-05-01T00:42:17.275Z,12.70
2023-05-01T00:44:45.496Z,12.63
2023-05-01T00:47:15.249Z,12.65
2023-05-01T00:49:44.202Z,12.71
2023-05-01T00:52:13.314Z,12.56
2023-05-01T00:54:42.125Z,12.40
2023-05-01T00:57:10.788Z,12.45
2023-05-01T00:59:39.623Z,12.51
2023-05-01T01:02:07.916Z,12.53
2023-05-01T01:04:37.669Z,12.57
2023-05-01T01:07:13.238Z,12.55
2023-05-01T01:09:57.460Z,12.55
2023-05-01T01:12:32.447Z,12.58
2023-05-01T01:15:14.529Z,12.43
2023-05-01T01:17:50.882Z,12.33
2023-05-01T01:20:38.185Z,12.00
2023-05-01T01:23:23.945Z,11.67
2023-05-01T01:26:12.749Z,11.16
2023-05-01T01:29:03.830Z,11.35
2023-05-01T01:31:39.844Z,11.53
2023-05-01T01:34:16.194Z,11.78
2023-05-01T01:36:52.349Z,11.36
2023-05-01T01:39:37.409Z,11.85
2023-05-01T01:42:11.515Z,12.12
2023-05-01T01:44:43.280Z,12.13
2023-05-01T01:47:14.140Z,12.23
2023-05-01T01:49:48.092Z,12.17
2023-05-01T01:52:18.393Z,12.29
2023-05-01T01:54:52.223Z,12.27
2023-05-01T01:57:22.751Z,12.22
2023-05-01T01:59:52.955Z,11.62
2023-05-01T02:02:22.586Z,10.55
2023-05-01T02:04:53.956Z,10.21
2023-05-01T02:07:23.786Z,10.66
2023-05-01T02:09:54.805Z,10.68
2023-05-01T02:12:27.063Z,10.23
2023-05-01T02:14:56.408Z,10.58
2023-05-01T02:17:25.317Z,10.81
2023-05-01T02:19:57.514Z,11.07
2023-05-01T02:22:27.852Z,11.17
2023-05-01T02:24:58.433Z,11.12
2023-05-01T02:27:33.367Z,11.18
2023-05-01T02:30:01.704Z,11.30
2023-05-01T02:32:30.071Z,11.44
2023-05-01T02:35:00.207Z,11.26
2023-05-01T02:37:30.861Z,11.30
2023-05-01T02:39:59.912Z,11.36
2023-05-01T02:42:30.090Z,11.59
2023-05-01T02:45:01.756Z,11.48
2023-05-01T02:47:33.966Z,11.57
2023-05-01T02:50:05.332Z,11.57
2023-05-01T02:52:33.886Z,11.66
2023-05-01T02:55:02.363Z,11.66
2023-05-01T02:57:30.598Z,11.59
2023-05-01T02:59:58.900Z,11.57
2023-05-01T03:02:27.205Z,11.53
2023-05-01T03:04:55.455Z,11.29
2023-05-01T03:07:25.089Z,11.36
2023-05-01T03:09:53.368Z,11.28
2023-05-01T03:12:21.885Z,11.36
2023-05-01T03:14:50.141Z,11.42
2023-05-01T03:17:18.398Z,10.70
2023-05-01T03:19:47.052Z,10.80
2023-05-01T03:22:15.366Z,10.70
2023-05-01T03:24:45.199Z,11.03
2023-05-01T03:27:13.545Z,11.25
2023-05-01T03:29:41.849Z,11.34
2023-05-01T03:32:10.149Z,11.23
2023-05-01T03:34:38.487Z,11.44
2023-05-01T03:37:06.857Z,11.48
2023-05-01T03:39:35.051Z,11.37
2023-05-01T03:42:05.400Z,10.90
2023-05-01T03:44:33.887Z,10.63
2023-05-01T03:47:02.268Z,10.40
2023-05-01T03:49:30.579Z,10.19
2023-05-01T03:51:58.763Z,10.66
2023-05-01T03:54:27.137Z,10.44
2023-05-01T03:56:55.447Z,10.94
2023-05-01T03:59:25.296Z,11.37
2023-05-01T04:01:53.637Z,11.42
2023-05-01T04:04:22.127Z,11.43
2023-05-01T04:06:50.629Z,11.54
2023-05-01T04:09:19.687Z,11.53
2023-05-01T04:11:47.910Z,11.52
2023-05-01T04:14:16.124Z,11.93
2023-05-01T04:16:45.796Z,12.18
2023-05-01T04:19:14.080Z,12.35
2023-05-01T04:21:42.647Z,11.53
2023-05-01T04:24:11.060Z,11.56
2023-05-01T04:26:39.348Z,11.71
2023-05-01T04:29:07.616Z,11.91
2023-05-01T04:31:36.342Z,10.64
2023-05-01T04:34:06.915Z,10.21
2023-05-01T04:36:35.170Z,10.75
2023-05-01T04:39:03.583Z,11.04
2023-05-01T04:41:31.840Z,11.58
2023-05-01T04:44:00.238Z,11.28
2023-05-01T04:46:28.491Z,12.07
2023-05-01T04:48:56.744Z,12.13
2023-05-01T04:51:26.490Z,11.96
2023-05-01T04:53:55.648Z,11.80
2023-05-01T04:56:23.801Z,12.27
2023-05-01T04:58:52.179Z,12.28
2023-05-01T05:01:20.426Z,12.39
2023-05-01T05:03:50.263Z,12.59
2023-05-01T05:06:18.861Z,12.77
2023-05-01T05:08:52.041Z,12.08
2023-05-01T05:11:20.833Z,11.90
2023-05-01T05:13:49.065Z,12.24
2023-05-01T05:16:17.615Z,12.11
2023-05-01T05:18:45.963Z,11.93
2023-05-01T05:21:14.254Z,10.17
2023-05-01T05:23:42.513Z,11.64
2023-05-01T05:26:12.231Z,11.69
2023-05-01T05:28:41.016Z,10.84
2023-05-01T05:31:09.366Z,12.33
2023-05-01T05:33:37.792Z,13.13
2023-05-01T05:36:06.701Z,13.08
2023-05-01T05:38:34.981Z,13.33
2023-05-01T05:41:03.298Z,13.76
2023-05-01T05:43:33.528Z,13.63
2023-05-01T05:46:02.208Z,14.08
2023-05-01T05:48:30.734Z,14.35
2023-05-01T05:50:58.997Z,14.73
2023-05-01T05:53:27.342Z,15.13
2023-05-01T05:55:55.991Z,15.25
2023-05-01T05:58:24.824Z,15.42
2023-05-01T06:00:55.968Z,15.40
2023-05-01T06:03:24.704Z,15.06
2023-05-01T06:05:54.539Z,15.37
2023-05-01T06:08:23.002Z,15.66
2023-05-01T06:10:51.665Z,14.64
2023-05-01T06:13:19.925Z,14.88
2023-05-01T06:15:48.391Z,14.58
2023-05-01T06:18:18.200Z,14.73
2023-05-01T06:20:47.437Z,14.91
2023-05-01T06:23:15.699Z,15.55
2023-05-01T06:25:44.477Z,15.75
2023-05-01T06:28:12.981Z,15.58
2023-05-01T06:30:41.356Z,16.46
2023-05-01T06:33:10.477Z,16.13
2023-05-01T06:35:41.810Z,15.81
2023-05-01T06:38:10.087Z,16.88
2023-05-01T06:40:38.525Z,16.83
2023-05-01T06:43:06.985Z,13.48
2023-05-01T06:45:35.212Z,16.64
2023-05-01T06:48:03.635Z,16.52
2023-05-01T06:50:31.928Z,16.95
2023-05-01T06:53:02.897Z,17.55
2023-05-01T06:55:33.239Z,18.24
2023-05-01T06:58:04.869Z,18.97
2023-05-01T07:00:40.935Z,19.74
2023-05-01T07:03:09.317Z,19.64
2023-05-01T07:05:37.593Z,20.02
2023-05-01T07:08:07.405Z,20.37
2023-05-01T07:10:35.939Z,20.31
2023-05-01T07:13:04.803Z,20.60
2023-05-01T07:15:36.593Z,20.72
2023-05-01T07:18:06.190Z,21.45
2023-05-01T07:20:35.037Z,21.36
2023-05-01T07:23:07.320Z,21.66
2023-05-01T07:25:38.872Z,21.89
2023-05-01T07:28:08.305Z,22.39
2023-05-01T07:30:38.012Z,22.88
2023-05-01T07:33:06.832Z,23.14
2023-05-01T07:35:35.112Z,23.39
2023-05-01T07:38:03.491Z,23.43
2023-05-01T07:40:34.250Z,23.66
2023-05-01T07:43:04.410Z,23.30
2023-05-01T07:45:32.799Z,22.96
2023-05-01T07:48:01.141Z,23.81
2023-05-01T07:50:29.489Z,24.16
2023-05-01T07:52:57.940Z,24.18
2023-05-01T07:55:26.701Z,24.15
2023-05-01T07:57:58.197Z,25.11
2023-05-01T08:00:27.988Z,23.47
2023-05-01T08:02:56.348Z,23.76
2023-05-01T08:05:24.791Z,25.03
2023-05-01T08:07:53.084Z,25.64
2023-05-01T08:10:21.361Z,25.01
2023-05-01T08:12:49.677Z,25.39
2023-05-01T08:15:17.946Z,25.58
2023-05-01T08:17:47.783Z,25.92
2023-05-01T08:20:16.106Z,26.92
2023-05-01T08:22:44.477Z,26.73
2023-05-01T08:25:12.654Z,26.63
2023-05-01T08:27:41.066Z,25.34
2023-05-01T08:30:09.850Z,25.09
2023-05-01T08:32:38.160Z,25.30
2023-05-01T08:35:08.592Z,26.13
2023-05-01T08:37:36.852Z,26.55
2023-05-01T08:40:09.149Z,27.06
2023-05-01T08:42:39.044Z,26.62
2023-05-01T08:45:09.502Z,25.42
2023-05-01T08:47:39.526Z,26.64
2023-05-01T08:50:11.368Z,27.31
2023-05-01T08:52:43.440Z,26.54
2023-05-01T08:55:15.357Z,25.26
2023-05-01T08:57:47.261Z,26.82
2023-05-01T09:00:20.189Z,26.11
2023-05-01T09:02:50.454Z,26.28
2023-05-01T09:05:21.377Z,27.25
2023-05-01T09:07:50.124Z,26.46
2023-05-01T09:10:20.270Z,27.04
2023-05-01T09:12:56.305Z,27.90
2023-05-01T09:15:27.138Z,28.00
2023-05-01T09:17:55.879Z,27.36
2023-05-01T09:20:25.994Z,26.87
2023-05-01T09:22:54.354Z,26.55
2023-05-01T09:25:22.569Z,25.80
2023-05-01T09:27:50.920Z,27.44
2023-05-01T09:30:32.701Z,28.14
2023-05-01T09:33:11.382Z,28.62
2023-05-01T09:35:56.450Z,28.04
2023-05-01T09:38:26.588Z,27.14
2023-05-01T09:40:56.903Z,27.90
2023-05-01T09:43:29.785Z,29.18
2023-05-01T09:46:03.905Z,29.99
2023-05-01T09:48:35.368Z,27.95
2023-05-01T09:51:22.061Z,28.38
2023-05-01T09:53:50.682Z,27.67
2023-05-01T09:56:19.284Z,27.38
2023-05-01T09:58:47.928Z,27.84
2023-05-01T10:01:16.735Z,27.00
2023-05-01T10:03:46.241Z,28.35
2023-05-01T10:06:28.832Z,27.82
2023-05-01T10:08:57.347Z,28.49
2023-05-01T10:11:27.175Z,27.84
2023-05-01T10:14:09.810Z,28.90
2023-05-01T10:16:39.588Z,28.39
2023-05-01T10:19:08.090Z,28.01
2023-05-01T10:21:38.131Z,27.24
2023-05-01T10:24:08.466Z,27.49
2023-05-01T10:26:37.468Z,29.10
2023-05-01T10:29:06.133Z,28.58
2023-05-01T10:31:34.515Z,29.25
2023-05-01T10:34:03.328Z,27.60
2023-05-01T10:36:37.523Z,28.20
2023-05-01T10:39:07.392Z,28.70
2023-05-01T10:42:06.793Z,28.89
2023-05-01T10:44:36.028Z,29.29
2023-05-01T10:47:42.943Z,29.32
2023-05-01T10:50:12.483Z,28.32
2023-05-01T10:53:18.332Z,28.18
2023-05-01T10:55:49.556Z,28.78
2023-05-01T10:58:56.574Z,28.44
2023-05-01T11:01:33.121Z,28.38
2023-05-01T11:04:04.247Z,28.21
2023-05-01T11:06:33.589Z,27.25
2023-05-01T11:09:02.907Z,26.75
2023-05-01T11:11:51.859Z,25.39
2023-05-01T11:14:20.198Z,24.98
2023-05-01T11:16:49.639Z,24.57
2023-05-01T11:19:47.775Z,24.98
2023-05-01T11:22:16.470Z,24.61
2023-05-01T11:24:44.962Z,24.29
2023-05-01T11:27:18.408Z,25.55
2023-05-01T11:29:49.978Z,27.70
2023-05-01T11:32:27.190Z,26.71
2023-05-01T11:34:56.121Z,27.63
2023-05-01T11:37:42.775Z,26.48
2023-05-01T11:40:22.297Z,27.46
2023-05-01T11:42:52.915Z,27.42
2023-05-01T11:45:21.565Z,27.78
2023-05-01T11:47:50.098Z,26.97
2023-05-01T11:50:18.483Z,27.90
2023-05-01T11:52:49.486Z,29.16
2023-05-01T11:55:18.084Z,27.27
2023-05-01T11:57:54.758Z,28.06
2023-05-01T12:00:30.854Z,29.12
2023-05-01T12:03:01.251Z,29.21
2023-05-01T12:05:32.552Z,29.49
2023-05-01T12:08:18.783Z,27.84
2023-05-01T12:10:50.380Z,28.08
2023-05-01T12:13:20.807Z,28.57
2023-05-01T12:15:52.978Z,27.59
2023-05-01T12:18:22.694Z,25.54
2023-05-01T12:20:53.098Z,25.57
2023-05-01T12:23:31.786Z,24.59
2023-05-01T12:26:00.246Z,23.63
2023-05-01T12:28:30.347Z,22.74
2023-05-01T12:31:05.470Z,22.25
2023-05-01T12:33:34.138Z,22.42
2023-05-01T12:36:11.787Z,21.68
2023-05-01T12:38:40.104Z,22.65
2023-05-01T12:41:09.751Z,22.25
2023-05-01T12:43:39.494Z,22.51
2023-05-01T12:46:14.942Z,22.33
2023-05-01T12:48:43.571Z,21.94
2023-05-01T12:51:19.930Z,21.10
2023-05-01T12:53:49.436Z,20.99
2023-05-01T12:56:24.362Z,20.69
2023-05-01T12:58:55.500Z,20.58
2023-05-01T13:01:27.825Z,19.73
2023-05-01T13:03:58.133Z,19.25
2023-05-01T13:06:34.732Z,19.60
2023-05-01T13:09:10.717Z,19.11
2023-05-01T13:11:39.580Z,19.20
2023-05-01T13:14:11.061Z,18.98
2023-05-01T13:16:48.506Z,18.91
2023-05-01T13:19:28.546Z,19.20
2023-05-01T13:21:57.645Z,19.16
2023-05-01T13:24:26.199Z,19.00
2023-05-01T13:27:03.492Z,19.22
2023-05-01T13:29:35.029Z,19.22
2023-05-01T13:32:05.982Z,19.79
2023-05-01T13:34:37.703Z,19.58
2023-05-01T13:37:13.487Z,19.96
2023-05-01T13:39:42.830Z,20.34
2023-05-01T13:42:13.036Z,20.72
2023-05-01T13:44:52.404Z,20.90
2023-05-01T13:47:23.378Z,19.43
2023-05-01T13:49:51.795Z,19.40
2023-05-01T13:52:21.529Z,18.88
2023-05-01T13:54:49.779Z,18.48
2023-05-01T13:57:18.166Z,18.14
2023-05-01T13:59:49.157Z,18.42
2023-05-01T14:02:22.068Z,18.59
2023-05-01T14:04:50.958Z,18.72
2023-05-01T14:07:20.484Z,18.96
2023-05-01T14:09:54.819Z,18.93
2023-05-01T14:12:27.715Z,18.12
2023-05-01T14:14:58.130Z,17.99
2023-05-01T14:17:32.774Z,17.47
2023-05-01T14:20:01.367Z,17.89
2023-05-01T14:22:31.032Z,17.97
2023-05-01T14:25:00.024Z,18.08
2023-05-01T14:27:28.584Z,18.65
2023-05-01T14:29:58.287Z,18.86
2023-05-01T14:32:27.305Z,18.95
2023-05-01T14:34:55.838Z,18.27
2023-05-01T14:37:24.388Z,18.65
2023-05-01T14:39:52.665Z,18.93
2023-05-01T14:42:20.967Z,19.07
2023-05-01T14:44:49.239Z,19.13
2023-05-01T14:47:22.221Z,19.41
2023-05-01T14:49:53.441Z,18.68
2023-05-01T14:52:22.538Z,18.56
2023-05-01T14:54:53.018Z,19.26
2023-05-01T14:57:21.304Z,18.42
2023-05-01T14:59:49.477Z,18.61
2023-05-01T15:02:19.228Z,18.18
2023-05-01T15:04:47.907Z,17.77
2023-05-01T15:07:16.775Z,17.50
2023-05-01T15:09:46.520Z,17.51
2023-05-01T15:12:14.805Z,17.82
2023-05-01T15:14:43.129Z,17.88
2023-05-01T15:17:11.518Z,17.97
2023-05-01T15:19:41.112Z,18.34
2023-05-01T15:22:09.310Z,17.93
2023-05-01T15:24:37.536Z,17.91
2023-05-01T15:27:06.156Z,17.67
2023-05-01T15:29:34.422Z,17.76
2023-05-01T15:32:11.976Z,17.67
2023-05-01T15:34:43.020Z,17.86
2023-05-01T15:37:11.466Z,17.73
2023-05-01T15:39:40.885Z,17.90
2023-05-01T15:42:09.874Z,17.94
2023-05-01T15:44:39.869Z,17.82
2023-05-01T15:47:08.322Z,17.32
2023-05-01T15:49:36.913Z,17.50
2023-05-01T15:52:06.709Z,17.62
2023-05-01T15:54:35.068Z,17.46
2023-05-01T15:57:03.725Z,17.68
2023-05-01T15:59:32.136Z,17.73
2023-05-01T16:02:00.460Z,17.53
2023-05-01T16:04:28.687Z,17.59
2023-05-01T16:06:57.039Z,16.72
2023-05-01T16:09:32.160Z,16.47
2023-05-01T16:12:01.126Z,16.36
2023-05-01T16:14:29.829Z,15.88
2023-05-01T16:16:58.391Z,15.54
2023-05-01T16:19:29.811Z,15.58
2023-05-01T16:21:58.241Z,15.66
2023-05-01T16:24:28.154Z,14.88
2023-05-01T16:26:57.491Z,15.58
2023-05-01T16:29:25.977Z,15.72
2023-05-01T16:31:54.578Z,15.90
2023-05-01T16:34:26.438Z,16.25
2023-05-01T16:36:56.522Z,16.16
2023-05-01T16:39:24.989Z,16.72
2023-05-01T16:41:55.604Z,16.63
2023-05-01T16:44:24.405Z,16.67
2023-05-01T16:46:54.947Z,16.59
2023-05-01T16:49:24.197Z,16.49
2023-05-01T16:51:56.804Z,16.68
2023-05-01T16:54:25.316Z,16.76
2023-05-01T16:56:54.918Z,16.74
2023-05-01T16:59:23.299Z,16.47
2023-05-01T17:01:52.437Z,16.63
2023-05-01T17:04:20.818Z,16.47
2023-05-01T17:06:50.412Z,16.08
2023-05-01T17:09:18.727Z,16.26
2023-05-01T17:11:47.035Z,16.28
2023-05-01T17:14:16.706Z,16.21
2023-05-01T17:16:46.297Z,15.66
2023-05-01T17:19:16.181Z,15.81
2023-05-01T17:21:44.382Z,16.06
2023-05-01T17:24:13.201Z,15.82
2023-05-01T17:26:41.562Z,15.68
2023-05-01T17:29:09.912Z,15.89
2023-05-01T17:31:39.567Z,15.98
2023-05-01T17:34:07.866Z,15.92
2023-05-01T17:36:36.864Z,15.78
2023-05-01T17:39:05.274Z,15.47
2023-05-01T17:41:33.625Z,15.03
2023-05-01T17:44:02.021Z,15.49
2023-05-01T17:46:30.359Z,15.50
2023-05-01T17:49:00.112Z,15.33
2023-05-01T17:51:28.660Z,15.04
2023-05-01T17:53:56.964Z,15.13
2023-05-01T17:56:25.957Z,14.58
2023-05-01T17:58:54.435Z,15.03
2023-05-01T18:01:22.670Z,15.23
2023-05-01T18:03:51.449Z,14.66
2023-05-01T18:06:21.666Z,14.48
2023-05-01T18:08:50.487Z,14.76
2023-05-01T18:11:18.771Z,14.79
2023-05-01T18:13:48.289Z,15.20
2023-05-01T18:16:17.001Z,14.92
2023-05-01T18:18:45.787Z,13.98
2023-05-01T18:21:14.715Z,14.74
2023-05-01T18:23:46.432Z,14.38
2023-05-01T18:26:16.677Z,14.09
2023-05-01T18:28:44.977Z,14.29
2023-05-01T18:31:14.458Z,14.19
2023-05-01T18:33:42.758Z,14.21
2023-05-01T18:36:13.854Z,13.38
2023-05-01T18:38:43.594Z,13.72
2023-05-01T18:41:11.869Z,14.33
2023-05-01T18:43:40.219Z,14.51
2023-05-01T18:46:08.631Z,14.86
2023-05-01T18:48:37.054Z,14.92
2023-05-01T18:51:08.586Z,14.42
2023-05-01T18:53:37.727Z,14.30
2023-05-01T18:56:09.604Z,13.75
2023-05-01T18:58:39.902Z,13.39
2023-05-01T19:01:08.269Z,13.77
2023-05-01T19:03:36.555Z,13.99
2023-05-01T19:06:05.120Z,13.85
2023-05-01T19:08:33.444Z,13.58
2023-05-01T19:11:01.741Z,13.46
2023-05-01T19:13:32.864Z,13.75
2023-05-01T19:16:01.222Z,13.48
2023-05-01T19:18:29.610Z,13.97
2023-05-01T19:20:57.892Z,13.72
2023-05-01T19:23:27.512Z,13.08
2023-05-01T19:25:55.771Z,13.86
2023-05-01T19:28:24.013Z,14.09
2023-05-01T19:30:53.727Z,14.26
2023-05-01T19:33:22.076Z,14.25
2023-05-01T19:35:50.437Z,14.28
2023-05-01T19:38:18.742Z,13.93
2023-05-01T19:40:47.078Z,14.25
2023-05-01T19:43:15.320Z,14.30
2023-05-01T19:45:44.072Z,14.34
2023-05-01T19:48:13.911Z,14.15
2023-05-01T19:50:44.279Z,14.08
2023-05-01T19:53:12.607Z,14.01
2023-05-01T19:55:41.596Z,13.98
2023-05-01T19:58:10.209Z,14.16
2023-05-01T20:00:38.584Z,14.18
2023-05-01T20:03:07.285Z,14.15
2023-05-01T20:05:37.533Z,14.06
2023-05-01T20:08:06.338Z,14.26
2023-05-01T20:10:34.653Z,13.93
2023-05-01T20:13:10.100Z,13.74
2023-05-01T20:15:39.258Z,14.00
2023-05-01T20:18:08.273Z,14.08
2023-05-01T20:20:37.992Z,14.12
2023-05-01T20:23:13.618Z,13.83
2023-05-01T20:25:42.409Z,13.44
2023-05-01T20:28:14.269Z,13.42
2023-05-01T20:30:44.612Z,13.41
2023-05-01T20:33:13.955Z,13.07
2023-05-01T20:35:43.961Z,13.70
2023-05-01T20:38:12.464Z,13.51
2023-05-01T20:40:41.602Z,13.29
2023-05-01T20:43:10.121Z,13.19
2023-05-01T20:45:39.634Z,13.18
2023-05-01T20:48:08.178Z,13.13
2023-05-01T20:50:36.659Z,12.93
2023-05-01T20:53:06.343Z,13.41
2023-05-01T20:55:34.626Z,13.47
2023-05-01T20:58:02.981Z,13.61
2023-05-01T21:00:31.584Z,13.64
2023-05-01T21:03:00.600Z,13.17
2023-05-01T21:05:29.262Z,13.54
2023-05-01T21:07:58.822Z,13.18
2023-05-01T21:10:28.706Z,13.21
2023-05-01T21:12:57.920Z,13.10
2023-05-01T21:15:27.065Z,13.51
2023-05-01T21:17:55.417Z,12.81
2023-05-01T21:20:32.239Z,12.85
2023-05-01T21:23:01.378Z,13.42
2023-05-01T21:25:32.110Z,13.56
2023-05-01T21:28:03.671Z,13.65
2023-05-01T21:30:34.409Z,13.26
2023-05-01T21:33:03.688Z,13.33
2023-05-01T21:35:32.340Z,12.25
2023-05-01T21:38:00.860Z,13.52
2023-05-01T21:40:30.691Z,13.56
2023-05-01T21:42:59.078Z,13.58
2023-05-01T21:45:28.199Z,13.38
2023-05-01T21:47:56.532Z,13.43
2023-05-01T21:50:25.064Z,13.43
2023-05-01T21:52:53.402Z,13.21
2023-05-01T21:55:23.736Z,13.22
2023-05-01T21:57:53.901Z,13.11
2023-05-01T22:00:22.671Z,12.71
2023-05-01T22:02:52.166Z,12.97
2023-05-01T22:05:22.916Z,13.06
2023-05-01T22:07:52.951Z,12.95
2023-05-01T22:10:21.809Z,12.82
2023-05-01T22:12:50.496Z,12.63
2023-05-01T22:15:20.570Z,12.40
2023-05-01T22:17:48.924Z,12.46
2023-05-01T22:20:17.185Z,12.50
2023-05-01T22:22:45.431Z,12.58
2023-05-01T22:25:15.179Z,12.60
2023-05-01T22:27:43.492Z,12.52
2023-05-01T22:30:13.068Z,12.49
2023-05-01T22:32:42.779Z,12.51
2023-05-01T22:35:11.420Z,12.45
2023-05-01T22:37:39.608Z,12.46
2023-05-01T22:40:09.272Z,12.47
2023-05-01T22:42:37.545Z,12.04
2023-05-01T22:45:07.190Z,12.42
2023-05-01T22:47:35.563Z,12.22
2023-05-01T22:50:05.664Z,12.23
2023-05-01T22:52:33.930Z,12.29
2023-05-01T22:55:02.158Z,12.31
2023-05-01T22:57:30.610Z,11.58
2023-05-01T22:59:59.205Z,11.91
2023-05-01T23:02:27.975Z,11.77
2023-05-01T23:04:56.330Z,11.40
2023-05-01T23:07:26.064Z,11.42
2023-05-01T23:09:54.420Z,11.56
2023-05-01T23:12:23.751Z,11.58
2023-05-01T23:14:52.000Z,11.88
2023-05-01T23:17:20.348Z,11.83
2023-05-01T23:19:49.217Z,11.89
2023-05-01T23:22:18.056Z,11.82
2023-05-01T23:24:49.482Z,11.84
2023-05-01T23:27:18.560Z,11.89
2023-05-01T23:29:58.336Z,11.74
2023-05-01T23:32:28.813Z,11.64
2023-05-01T23:35:02.080Z,11.33
2023-05-01T23:37:30.340Z,11.48
2023-05-01T23:40:00.825Z,11.54
2023-05-01T23:42:29.606Z,11.46
2023-05-01T23:44:58.188Z,11.63
2023-05-01T23:47:26.806Z,11.71
2023-05-01T23:49:55.205Z,11.63
2023-05-01T23:52:23.582Z,11.77
2023-05-01T23:54:51.849Z,11.69
2023-05-01T23:57:21.557Z,11.62
2023-05-01T23:59:49.954Z,11.42
